ADDS METAR Data INFO
IDs: Format: Raw Decoded Include TAF

Data at: 0458 UTC 23 May 2017

KSAA 230435Z AUTO 34005KT 10SM DZ SCT022 SCT027 OVC035 02/02 A3035 RMK AO2
KSAA 230415Z AUTO 00000KT 10SM SCT017 OVC038 02/02 A3033 RMK AO2
KSAA 230355Z AUTO 00000KT 10SM SCT017 BKN032 OVC050 02/02 A3032 RMK AO2
KSAA 230335Z AUTO 21005KT 10SM SCT037 SCT042 BKN055 01/01 A3032 RMK AO2
KSAA 230315Z AUTO 00000KT 10SM SCT018 SCT055 01/01 A3031 RMK AO2
KSAA 230255Z AUTO 21004KT 10SM SCT110 01/01 A3030 RMK AO2
KSAA 230235Z AUTO 32004KT 10SM BKN100 02/02 A3030 RMK AO2
KSAA 230210Z AUTO 26003KT 10SM BKN080 OVC100 03/02 A3030 RMK AO2
KSAA 230155Z AUTO 00000KT 10SM OVC090 03/03 A3030 RMK AO2
KSAA 230135Z AUTO 27003KT 10SM SCT014 OVC090 03/02 A3031 RMK AO2
KSAA 230115Z AUTO 23003KT 10SM BKN014 BKN019 OVC090 03/02 A3029 RMK AO2 LTG DSNT S
KSAA 230055Z AUTO 36005KT 10SM -RA SCT018 BKN023 OVC029 02/02 A3030 RMK AO2
KSAA 230035Z AUTO 33005KT 10SM -RA SCT012 BKN016 OVC035 02/02 A3030 RMK AO2
KSAA 230015Z AUTO 32006KT 5SM RA BKN011 BKN016 OVC022 02/02 A3029 RMK AO2 LTG DSNT S
KSAA 222355Z AUTO 27005KT 10SM -RA SCT015 BKN025 OVC044 03/03 A3030 RMK AO2 LTG DSNT S
KSAA 222335Z AUTO 29008G15KT 10SM -RA SCT011 BKN021 OVC043 02/02 A3030 RMK AO2 LTG DSNT E
KSAA 222315Z AUTO 32006KT 10SM RA BKN010 OVC014 02/02 A3030 RMK AO2 LTG DSNT S
KSAA 222255Z AUTO 01011G18KT 10SM -RA BKN010 BKN016 OVC027 03/03 A3030 RMK AO2 LTG DSNT S
KSAA 222235Z AUTO 36010G21KT 10SM VCTSRA SCT012 BKN018 OVC029 03/03 A3031 RMK AO2
KSAA 222215Z AUTO 35014G24KT 10SM BKN018 BKN034 OVC043 03/03 A3029 RMK AO2 LTG DSNT S
KSAA 222155Z AUTO 35016G26KT 10SM -TSRA SCT022 BKN034 OVC041 05/04 A3026 RMK AO2 LTG DSNT S AND W
KSAA 222135Z AUTO 01015G30KT 4SM TSRA SCT016 BKN023 OVC032 05/04 A3024 RMK AO2 LTG DSNT SE THRU W
KSAA 222115Z AUTO 36024G30KT 10SM -TSRA SCT030 BKN050 OVC075 07/03 A3022 RMK AO2 LTG DSNT ALQS
KSAA 222055Z AUTO 35019G34KT 10SM VCTS BKN065 BKN075 OVC095 09/02 A3019 RMK AO2 LTG DSNT W THRU NE
KSAA 222035Z AUTO 29017G25KT 10SM VCTS BKN065 BKN075 OVC120 13/00 A3017 RMK AO2 LTG DSNT NE AND E
KSAA 222015Z AUTO 29008G17KT 10SM SCT039 BKN070 OVC090 12/01 A3018 RMK AO2 LTG DSNT ALQS
KSAA 221955Z AUTO 33012G28KT 10SM -RA SCT029 BKN050 OVC065 10/00 A3018 RMK AO2
KSAA 221935Z AUTO 29007G15KT 10SM -RA SCT026 BKN050 OVC080 10/03 A3020 RMK AO2
KSAA 221915Z AUTO 31016G27KT 10SM -VCTSRA SCT027 BKN055 OVC100 11/00 A3020 RMK AO2 LTG DSNT NE
KSAA 221855Z AUTO 30014G22KT 10SM SCT060 BKN100 14/M02 A3019 RMK AO2
KSAA 221835Z AUTO 30009G25KT 10SM BKN060 BKN075 BKN100 13/M02 A3021 RMK AO2 LTG DSNT N
KSAA 221815Z AUTO 32010G25KT 10SM SCT060 BKN070 BKN075 13/M03 A3022 RMK AO2
KSAA 221755Z AUTO 29012G25KT 10SM BKN060 BKN070 BKN080 12/M01 A3022 RMK AO2
KSAA 221735Z AUTO 29013G28KT 10SM SCT050 SCT065 12/00 A3023 RMK AO2 LTG DSNT NE
KSAA 221715Z AUTO 28012G24KT 10SM SCT050 SCT065 12/00 A3024 RMK AO2
KSAA 221655Z AUTO 29017G28KT 10SM SCT049 SCT055 12/01 A3024 RMK AO2
KSAA 221635Z AUTO 29014G26KT 10SM SCT048 BKN055 BKN085 11/01 A3025 RMK AO2 LTG DSNT N
KSAA 221615Z AUTO 28005KT 10SM SCT048 SCT055 BKN085 10/02 A3026 RMK AO2 LTG DSNT N
KSAA 221555Z AUTO 00000KT 10SM SCT085 08/02 A3027 RMK AO2
KSAA 221535Z AUTO 13006KT 10SM CLR 07/02 A3028 RMK AO2
KSAA 221515Z AUTO 14003KT 10SM CLR 07/02 A3028 RMK AO2 LTG DSNT N
KSAA 221455Z AUTO 14003KT 10SM CLR 06/02 A3028 RMK AO2
KSAA 221435Z AUTO 14005KT 10SM CLR 06/02 A3028 RMK AO2
KSAA 221415Z AUTO 15004KT 10SM CLR 05/03 A3028 RMK AO2
KSAA 221355Z AUTO 15006KT 10SM SCT080 03/03 A3028 RMK AO2
KSAA 221335Z AUTO 14006KT 10SM SCT080 03/03 A3028 RMK AO2
KSAA 221315Z AUTO 17003KT 10SM CLR 01/01 A3028 RMK AO2
KSAA 221255Z AUTO 20009KT 10SM SCT065 SCT075 01/01 A3028 RMK AO2
KSAA 221235Z AUTO 18006KT 10SM SCT075 00/00 A3028 RMK AO2
KSAA 221215Z AUTO 17006KT 10SM CLR 00/00 A3027 RMK AO2
KSAA 221155Z AUTO 16005KT 10SM CLR 00/00 A3027 RMK AO2
KSAA 221135Z AUTO 14007KT 10SM CLR 00/00 A3028 RMK AO2
KSAA 221115Z AUTO 17004KT 10SM CLR 00/00 A3028 RMK AO2
KSAA 221055Z AUTO 15004KT 10SM CLR 00/00 A3027 RMK AO2
KSAA 221035Z AUTO 16005KT 10SM CLR 00/00 A3028 RMK AO2
KSAA 221015Z AUTO 16004KT 10SM CLR 00/00 A3028 RMK AO2
KSAA 220955Z AUTO 14008KT 10SM CLR 00/00 A3028 RMK AO2
KSAA 220935Z AUTO 17007KT 10SM CLR 00/00 A3028 RMK AO2
KSAA 220915Z AUTO 17007KT 10SM CLR 00/00 A3028 RMK AO2
KSAA 220855Z AUTO 19007KT 10SM CLR 00/00 A3029 RMK AO2
KSAA 220835Z AUTO 17004KT 10SM CLR 00/00 A3030 RMK AO2
KSAA 220815Z AUTO 20008KT 10SM CLR 00/00 A3030 RMK AO2
KSAA 220755Z AUTO 19005KT 10SM CLR 00/00 A3030 RMK AO2
KSAA 220735Z AUTO 00000KT 10SM CLR 01/01 A3031 RMK AO2
KSAA 220715Z AUTO 00000KT 10SM CLR 01/01 A3031 RMK AO2
KSAA 220655Z AUTO 18005KT 10SM CLR 01/01 A3030 RMK AO2
KSAA 220635Z AUTO 13006KT 10SM CLR 02/02 A3030 RMK AO2
KSAA 220615Z AUTO 20016KT 10SM CLR 02/02 A3030 RMK AO2
KSAA 220555Z AUTO 20011G16KT 142V212 10SM CLR 03/03 A3031 RMK AO2
KSAA 220535Z AUTO 23005KT 10SM CLR 02/02 A3031 RMK AO2
KSAA 220515Z AUTO 12005KT 10SM CLR 02/02 A3031 RMK AO2
KSAA 220455Z AUTO 12006KT 10SM CLR 02/02 A3031 RMK AO2
KSAA 220435Z AUTO 00000KT 10SM CLR 03/03 A3031 RMK AO2
KSAA 220415Z AUTO 14006KT 10SM SCT070 04/04 A3031 RMK AO2
KSAA 220355Z AUTO 14007KT 10SM -DZ SCT042 BKN060 OVC080 05/05 A3030 RMK AO2
KSAA 220335Z AUTO 03005KT 10SM SCT044 BKN060 BKN070 05/04 A3030 RMK AO2
KSAA 220315Z AUTO 30004KT 10SM SCT060 04/04 A3030 RMK AO2
KSAA 220255Z AUTO 26005KT 10SM SCT080 05/05 A3029 RMK AO2
KSAA 220235Z AUTO 24005KT 10SM OVC080 07/03 A3028 RMK AO2 LTG DSNT N
KSAA 220215Z AUTO 22008KT 10SM SCT039 BKN065 OVC080 07/04 A3027 RMK AO2 LTG DSNT SW
KSAA 220155Z AUTO 26009KT 10SM SCT035 BKN048 OVC060 07/04 A3028 RMK AO2
KSAA 220135Z AUTO 24004KT 10SM -RA SCT042 BKN048 OVC060 08/03 A3028 RMK AO2
KSAA 220115Z AUTO 21006KT 10SM SCT060 SCT110 08/03 A3027 RMK AO2 LTG DSNT S
KSAA 220055Z AUTO 00000KT 10SM SCT120 08/03 A3027 RMK AO2 LTG DSNT S
KSAA 220035Z AUTO 22004KT 10SM SCT120 08/03 A3026 RMK AO2 LTG DSNT SW
KSAA 220015Z AUTO 19005KT 10SM SCT050 08/02 A3026 RMK AO2 LTG DSNT W
KSAA 212355Z AUTO 11004KT 10SM SCT075 08/02 A3026 RMK AO2 LTG DSNT SW
KSAA 212335Z AUTO 16003KT 10SM SCT042 SCT049 SCT075 08/02 A3026 RMK AO2 LTG DSNT W
KSAA 212315Z AUTO 00000KT 10SM SCT036 BKN042 OVC085 08/02 A3026 RMK AO2 LTG DSNT SW
KSAA 212255Z AUTO 01004KT 10SM -RA SCT036 BKN042 OVC060 08/03 A3026 RMK AO2 LTG DSNT W
KSAA 212235Z AUTO 02005KT 10SM VCTS SCT024 BKN044 OVC060 07/04 A3026 RMK AO2 LTG DSNT SW AND W
KSAA 212215Z AUTO 07004KT 10SM SCT026 SCT033 BKN042 08/03 A3027 RMK AO2 LTG DSNT SE THRU W
KSAA 212155Z AUTO 09005KT 10SM SCT029 SCT044 SCT060 08/05 A3026 RMK AO2 LTG DSNT S AND SW
KSAA 212135Z AUTO 05006KT 10SM -VCTSRA BKN031 OVC042 07/05 A3026 RMK AO2 LTG DSNT SW
KSAA 212115Z AUTO 03004KT 10SM -RA SCT024 BKN029 OVC090 05/03 A3027 RMK AO2 LTG DSNT E AND SW
KSAA 212055Z AUTO 36010G16KT 10SM -VCTSRA SCT022 BKN031 OVC060 06/03 A3027 RMK AO2 LTG DSNT E AND SW
KSAA 212035Z AUTO 33006G17KT 7SM VCTSRA SCT019 BKN037 OVC042 06/03 A3027 RMK AO2 LTG DSNT E AND W
KSAA 212015Z AUTO 30013G18KT 10SM -VCTSDZ SCT031 BKN038 OVC065 06/03 A3026 RMK AO2 LTG DSNT NE AND E
KSAA 211955Z AUTO 15004KT 10SM TS SCT034 BKN065 OVC085 07/03 A3026 RMK AO2
KSAA 211935Z AUTO 11009G17KT 10SM VCTS SCT043 BKN065 OVC075 08/04 A3024 RMK AO2 LTG DSNT W AND NW
KSAA 211915Z AUTO 06003KT 10SM SCT042 SCT065 BKN075 08/02 A3025 RMK AO2 LTG DSNT E
KSAA 211855Z AUTO 02005KT 10SM VCTS SCT029 SCT055 BKN080 07/03 A3025 RMK AO2 LTG DSNT W AND NW
KSAA 211835Z AUTO 36004KT 5SM RA SCT028 BKN035 OVC047 05/02 A3026 RMK AO2 LTG DSNT N AND E
KSAA 211815Z AUTO 25011G18KT 10SM -TSRA BKN039 OVC048 07/02 A3026 RMK AO2 LTG DSNT SW AND W
KSAA 211755Z AUTO 31005G17KT 10SM SCT047 BKN050 OVC080 11/01 A3025 RMK AO2
KSAA 211735Z AUTO 01010G16KT 10SM BKN048 BKN060 11/01 A3024 RMK AO2
KSAA 211715Z AUTO 34009G17KT 302V012 10SM SCT044 SCT050 11/01 A3024 RMK AO2


Page loaded:  04:58 UTC  |   09:58 PM Pacific  |   10:58 PM Mountain  |   11:58 PM Central  |   12:58 AM Eastern

 

ADVISORIES

FORECASTS

FORECASTS

OBSERVATIONS

USER TOOLS

ABOUT US